sensor_id;sensor_type;location;lat;lon;timestamp;pressure;altitude;pressure_sealevel;temperature;humidity
6833;BME280;3454;42.654;23.378;2022-09-03T00:00:54;94436.47;;;16.11;100.00
6833;BME280;3454;42.654;23.378;2022-09-03T00:03:30;94435.66;;;16.10;100.00
6833;BME280;3454;42.654;23.378;2022-09-03T00:06:15;94444.63;;;16.14;100.00
6833;BME280;3454;42.654;23.378;2022-09-03T00:09:10;94446.22;;;16.15;100.00
6833;BME280;3454;42.654;23.378;2022-09-03T00:14:37;94447.72;;;16.10;100.00
6833;BME280;3454;42.654;23.378;2022-09-03T00:17:35;94450.22;;;16.18;100.00
6833;BME280;3454;42.654;23.378;2022-09-03T00:20:12;94453.63;;;16.10;100.00
6833;BME280;3454;42.654;23.378;2022-09-03T00:22:44;94440.78;;;16.10;100.00
6833;BME280;3454;42.654;23.378;2022-09-03T00:25:16;94445.88;;;16.18;100.00
6833;BME280;3454;42.654;23.378;2022-09-03T00:27:45;94444.47;;;16.16;100.00
6833;BME280;3454;42.654;23.378;2022-09-03T00:30:16;94438.41;;;16.09;100.00
6833;BME280;3454;42.654;23.378;2022-09-03T00:32:47;94455.84;;;16.13;100.00
6833;BME280;3454;42.654;23.378;2022-09-03T00:35:24;94443.03;;;16.13;100.00
6833;BME280;3454;42.654;23.378;2022-09-03T00:37:51;94441.59;;;16.11;100.00
6833;BME280;3454;42.654;23.378;2022-09-03T00:40:54;94444.63;;;16.14;100.00
6833;BME280;3454;42.654;23.378;2022-09-03T00:46:08;94437.78;;;16.07;100.00
6833;BME280;3454;42.654;23.378;2022-09-03T00:51:33;94439.75;;;15.96;100.00
6833;BME280;3454;42.654;23.378;2022-09-03T00:59:47;94450.22;;;15.87;100.00
6833;BME280;3454;42.654;23.378;2022-09-03T01:07:40;94435.75;;;15.94;100.00
6833;BME280;3454;42.654;23.378;2022-09-03T01:13:13;94444.06;;;15.96;100.00
6833;BME280;3454;42.654;23.378;2022-09-03T01:21:47;94440.75;;;15.87;100.00
6833;BME280;3454;42.654;23.378;2022-09-03T01:30:18;94444.00;;;15.81;100.00
6833;BME280;3454;42.654;23.378;2022-09-03T01:33:24;94449.56;;;15.85;100.00
6833;BME280;3454;42.654;23.378;2022-09-03T01:36:00;94457.44;;;15.83;100.00
6833;BME280;3454;42.654;23.378;2022-09-03T01:38:49;94470.44;;;15.74;100.00
6833;BME280;3454;42.654;23.378;2022-09-03T01:41:23;94465.03;;;15.69;100.00
6833;BME280;3454;42.654;23.378;2022-09-03T01:59:25;94460.22;;;15.66;100.00
6833;BME280;3454;42.654;23.378;2022-09-03T02:02:17;94459.72;;;15.70;100.00
6833;BME280;3454;42.654;23.378;2022-09-03T02:07:45;94449.81;;;15.67;100.00
6833;BME280;3454;42.654;23.378;2022-09-03T02:10:15;94450.09;;;15.72;100.00
6833;BME280;3454;42.654;23.378;2022-09-03T02:12:46;94452.19;;;15.77;100.00
6833;BME280;3454;42.654;23.378;2022-09-03T02:15:16;94461.94;;;15.81;100.00
6833;BME280;3454;42.654;23.378;2022-09-03T02:17:44;94472.03;;;15.83;100.00
6833;BME280;3454;42.654;23.378;2022-09-03T02:20:18;94467.88;;;15.74;100.00
6833;BME280;3454;42.654;23.378;2022-09-03T02:22:47;94466.28;;;15.73;100.00
6833;BME280;3454;42.654;23.378;2022-09-03T02:25:14;94467.22;;;15.72;100.00
6833;BME280;3454;42.654;23.378;2022-09-03T02:27:41;94463.72;;;15.73;100.00
6833;BME280;3454;42.654;23.378;2022-09-03T02:30:09;94470.91;;;15.77;100.00
6833;BME280;3454;42.654;23.378;2022-09-03T02:32:35;94462.91;;;15.72;100.00
6833;BME280;3454;42.654;23.378;2022-09-03T02:35:01;94470.59;;;15.72;100.00
6833;BME280;3454;42.654;23.378;2022-09-03T02:37:27;94471.59;;;15.71;100.00
6833;BME280;3454;42.654;23.378;2022-09-03T02:39:53;94470.94;;;15.69;100.00
6833;BME280;3454;42.654;23.378;2022-09-03T02:42:20;94473.50;;;15.69;100.00
6833;BME280;3454;42.654;23.378;2022-09-03T02:45:05;94471.44;;;15.65;100.00
6833;BME280;3454;42.654;23.378;2022-09-03T02:47:34;94477.84;;;15.69;100.00
6833;BME280;3454;42.654;23.378;2022-09-03T02:50:01;94476.56;;;15.65;100.00
6833;BME280;3454;42.654;23.378;2022-09-03T02:52:27;94481.50;;;15.66;100.00
6833;BME280;3454;42.654;23.378;2022-09-03T02:54:53;94480.72;;;15.66;100.00
6833;BME280;3454;42.654;23.378;2022-09-03T02:57:19;94488.41;;;15.66;100.00
6833;BME280;3454;42.654;23.378;2022-09-03T02:59:44;94488.56;;;15.64;100.00
6833;BME280;3454;42.654;23.378;2022-09-03T03:02:12;94481.88;;;15.55;100.00
6833;BME280;3454;42.654;23.378;2022-09-03T03:04:38;94492.44;;;15.52;100.00
6833;BME280;3454;42.654;23.378;2022-09-03T03:07:06;94490.22;;;15.49;100.00
6833;BME280;3454;42.654;23.378;2022-09-03T03:09:33;94479.81;;;15.51;100.00
6833;BME280;3454;42.654;23.378;2022-09-03T03:11:59;94485.72;;;15.51;100.00
6833;BME280;3454;42.654;23.378;2022-09-03T03:14:25;94485.56;;;15.53;100.00
6833;BME280;3454;42.654;23.378;2022-09-03T03:16:51;94482.03;;;15.54;100.00
6833;BME280;3454;42.654;23.378;2022-09-03T03:19:17;94469.19;;;15.62;100.00
6833;BME280;3454;42.654;23.378;2022-09-03T03:21:44;94473.38;;;15.55;100.00
6833;BME280;3454;42.654;23.378;2022-09-03T03:24:11;94481.06;;;15.63;100.00
6833;BME280;3454;42.654;23.378;2022-09-03T03:26:36;94480.25;;;15.62;100.00
6833;BME280;3454;42.654;23.378;2022-09-03T03:29:02;94477.84;;;15.69;100.00
6833;BME280;3454;42.654;23.378;2022-09-03T03:31:32;94476.41;;;15.58;100.00
6833;BME280;3454;42.654;23.378;2022-09-03T03:34:00;94480.59;;;15.59;100.00
6833;BME280;3454;42.654;23.378;2022-09-03T03:36:31;94488.09;;;15.61;100.00
6833;BME280;3454;42.654;23.378;2022-09-03T03:38:59;94483.28;;;15.58;100.00
6833;BME280;3454;42.654;23.378;2022-09-03T03:43:54;94478.66;;;15.61;100.00
6833;BME280;3454;42.654;23.378;2022-09-03T03:46:22;94488.91;;;15.61;100.00
6833;BME280;3454;42.654;23.378;2022-09-03T03:48:50;94485.19;;;15.64;100.00
6833;BME280;3454;42.654;23.378;2022-09-03T03:51:17;94482.63;;;15.64;100.00
6833;BME280;3454;42.654;23.378;2022-09-03T03:53:43;94477.50;;;15.64;100.00
6833;BME280;3454;42.654;23.378;2022-09-03T03:56:11;94484.41;;;15.63;100.00
6833;BME280;3454;42.654;23.378;2022-09-03T03:58:39;94479.78;;;15.59;100.00
6833;BME280;3454;42.654;23.378;2022-09-03T04:01:14;94490.97;;;15.58;100.00
6833;BME280;3454;42.654;23.378;2022-09-03T04:03:41;94491.63;;;15.60;100.00
6833;BME280;3454;42.654;23.378;2022-09-03T04:06:08;94489.88;;;15.60;100.00
6833;BME280;3454;42.654;23.378;2022-09-03T04:08:36;94490.50;;;15.62;100.00
6833;BME280;3454;42.654;23.378;2022-09-03T04:11:04;94482.97;;;15.61;100.00
6833;BME280;3454;42.654;23.378;2022-09-03T04:13:32;94482.97;;;15.61;100.00
6833;BME280;3454;42.654;23.378;2022-09-03T04:16:01;94481.38;;;15.60;100.00
6833;BME280;3454;42.654;23.378;2022-09-03T04:18:29;94491.94;;;15.65;100.00
6833;BME280;3454;42.654;23.378;2022-09-03T04:21:01;94489.38;;;15.65;100.00
6833;BME280;3454;42.654;23.378;2022-09-03T04:23:29;94489.06;;;15.60;100.00
6833;BME280;3454;42.654;23.378;2022-09-03T04:25:56;94492.78;;;15.57;100.00
6833;BME280;3454;42.654;23.378;2022-09-03T04:28:22;94496.09;;;15.58;100.00
6833;BME280;3454;42.654;23.378;2022-09-03T04:33:12;94495.44;;;15.64;100.00
6833;BME280;3454;42.654;23.378;2022-09-03T04:35:38;94506.66;;;15.71;100.00
6833;BME280;3454;42.654;23.378;2022-09-03T04:38:05;94512.72;;;15.70;100.00
6833;BME280;3454;42.654;23.378;2022-09-03T04:40:32;94505.22;;;15.68;100.00
6833;BME280;3454;42.654;23.378;2022-09-03T04:42:59;94514.63;;;15.76;100.00
6833;BME280;3454;42.654;23.378;2022-09-03T04:45:25;94518.34;;;15.73;100.00
6833;BME280;3454;42.654;23.378;2022-09-03T04:48:01;94516.28;;;15.69;100.00
6833;BME280;3454;42.654;23.378;2022-09-03T04:50:29;94512.72;;;15.70;100.00
6833;BME280;3454;42.654;23.378;2022-09-03T04:52:59;94515.78;;;15.73;100.00
6833;BME280;3454;42.654;23.378;2022-09-03T04:55:28;94527.16;;;15.71;100.00
6833;BME280;3454;42.654;23.378;2022-09-03T04:57:58;94523.31;;;15.67;100.00
6833;BME280;3454;42.654;23.378;2022-09-03T05:00:23;94534.22;;;15.69;100.00
6833;BME280;3454;42.654;23.378;2022-09-03T05:02:49;94532.94;;;15.73;100.00
6833;BME280;3454;42.654;23.378;2022-09-03T05:05:17;94534.38;;;15.75;100.00
6833;BME280;3454;42.654;23.378;2022-09-03T05:07:44;94541.56;;;15.72;100.00
6833;BME280;3454;42.654;23.378;2022-09-03T05:10:12;94545.09;;;15.71;100.00
6833;BME280;3454;42.654;23.378;2022-09-03T05:12:47;94548.31;;;15.73;100.00
6833;BME280;3454;42.654;23.378;2022-09-03T05:15:22;94544.94;;;15.64;100.00
6833;BME280;3454;42.654;23.378;2022-09-03T05:17:48;94541.28;;;15.67;100.00
6833;BME280;3454;42.654;23.378;2022-09-03T05:20:16;94546.69;;;15.64;100.00
6833;BME280;3454;42.654;23.378;2022-09-03T05:22:42;94538.50;;;15.84;100.00
6833;BME280;3454;42.654;23.378;2022-09-03T05:25:08;94553.91;;;15.76;100.00
6833;BME280;3454;42.654;23.378;2022-09-03T05:27:33;94545.41;;;15.68;100.00
6833;BME280;3454;42.654;23.378;2022-09-03T05:29:59;94554.69;;;15.77;100.00
6833;BME280;3454;42.654;23.378;2022-09-03T05:32:24;94548.94;;;15.75;100.00
6833;BME280;3454;42.654;23.378;2022-09-03T05:34:59;94541.41;;;15.73;100.00
6833;BME280;3454;42.654;23.378;2022-09-03T05:37:26;94543.00;;;15.74;100.00
6833;BME280;3454;42.654;23.378;2022-09-03T05:39:52;94547.34;;;15.66;100.00
6833;BME280;3454;42.654;23.378;2022-09-03T05:42:18;94555.84;;;15.66;100.00
6833;BME280;3454;42.654;23.378;2022-09-03T05:44:44;94558.22;;;15.76;100.00
6833;BME280;3454;42.654;23.378;2022-09-03T05:47:10;94560.28;;;15.80;100.00
6833;BME280;3454;42.654;23.378;2022-09-03T05:49:37;94563.00;;;15.95;100.00
6833;BME280;3454;42.654;23.378;2022-09-03T05:52:04;94576.13;;;15.92;100.00
6833;BME280;3454;42.654;23.378;2022-09-03T05:54:31;94571.53;;;15.79;100.00
6833;BME280;3454;42.654;23.378;2022-09-03T05:56:58;94568.63;;;15.82;100.00
6833;BME280;3454;42.654;23.378;2022-09-03T05:59:24;94563.66;;;15.89;100.00
6833;BME280;3454;42.654;23.378;2022-09-03T06:02:11;94565.88;;;15.92;100.00
6833;BME280;3454;42.654;23.378;2022-09-03T06:04:39;94571.31;;;15.97;100.00
6833;BME280;3454;42.654;23.378;2022-09-03T06:07:05;94584.44;;;16.02;100.00
6833;BME280;3454;42.654;23.378;2022-09-03T06:09:31;94587.34;;;15.99;100.00
6833;BME280;3454;42.654;23.378;2022-09-03T06:11:56;94582.34;;;16.06;100.00
6833;BME280;3454;42.654;23.378;2022-09-03T06:14:22;94574.97;;;16.03;100.00
6833;BME280;3454;42.654;23.378;2022-09-03T06:16:48;94593.09;;;16.09;100.00
6833;BME280;3454;42.654;23.378;2022-09-03T06:19:15;94576.53;;;16.28;100.00
6833;BME280;3454;42.654;23.378;2022-09-03T06:21:42;94589.00;;;16.31;100.00
6833;BME280;3454;42.654;23.378;2022-09-03T06:24:10;94590.09;;;16.36;100.00
6833;BME280;3454;42.654;23.378;2022-09-03T06:26:36;94593.00;;;16.33;100.00
6833;BME280;3454;42.654;23.378;2022-09-03T06:29:02;94591.13;;;16.19;100.00
6833;BME280;3454;42.654;23.378;2022-09-03T06:31:29;94608.91;;;16.21;100.00
6833;BME280;3454;42.654;23.378;2022-09-03T06:33:54;94606.53;;;16.19;100.00
6833;BME280;3454;42.654;23.378;2022-09-03T06:36:21;94604.59;;;16.21;100.00
6833;BME280;3454;42.654;23.378;2022-09-03T06:38:51;94600.91;;;16.24;100.00
6833;BME280;3454;42.654;23.378;2022-09-03T06:41:18;94606.78;;;16.32;100.00
6833;BME280;3454;42.654;23.378;2022-09-03T06:43:46;94599.38;;;16.53;100.00
6833;BME280;3454;42.654;23.378;2022-09-03T06:46:15;94608.22;;;16.82;100.00
6833;BME280;3454;42.654;23.378;2022-09-03T06:48:41;94626.38;;;16.80;100.00
6833;BME280;3454;42.654;23.378;2022-09-03T06:51:20;94619.78;;;16.77;100.00
6833;BME280;3454;42.654;23.378;2022-09-03T06:54:02;94621.44;;;16.62;100.00
6833;BME280;3454;42.654;23.378;2022-09-03T06:56:28;94604.78;;;16.58;100.00
6833;BME280;3454;42.654;23.378;2022-09-03T06:58:56;94591.66;;;16.53;100.00
6833;BME280;3454;42.654;23.378;2022-09-03T07:01:27;94604.16;;;16.56;100.00
6833;BME280;3454;42.654;23.378;2022-09-03T07:04:00;94606.06;;;16.62;100.00
6833;BME280;3454;42.654;23.378;2022-09-03T07:06:31;94609.88;;;16.74;100.00
6833;BME280;3454;42.654;23.378;2022-09-03T07:08:57;94612.34;;;16.91;100.00
6833;BME280;3454;42.654;23.378;2022-09-03T07:11:26;94617.63;;;16.89;100.00
6833;BME280;3454;42.654;23.378;2022-09-03T07:13:54;94616.69;;;16.90;100.00
6833;BME280;3454;42.654;23.378;2022-09-03T07:16:22;94623.53;;;16.98;100.00
6833;BME280;3454;42.654;23.378;2022-09-03T07:18:49;94629.31;;;17.00;100.00
6833;BME280;3454;42.654;23.378;2022-09-03T07:21:18;94624.78;;;17.02;100.00
6833;BME280;3454;42.654;23.378;2022-09-03T07:23:44;94626.19;;;17.12;100.00
6833;BME280;3454;42.654;23.378;2022-09-03T07:26:14;94625.16;;;16.99;100.00
6833;BME280;3454;42.654;23.378;2022-09-03T07:28:42;94626.06;;;17.06;100.00
6833;BME280;3454;42.654;23.378;2022-09-03T07:31:31;94645.84;;;16.97;100.00
6833;BME280;3454;42.654;23.378;2022-09-03T07:34:00;94628.00;;;17.04;100.00
6833;BME280;3454;42.654;23.378;2022-09-03T07:36:28;94640.22;;;17.02;100.00
6833;BME280;3454;42.654;23.378;2022-09-03T07:38:56;94643.44;;;16.96;100.00
6833;BME280;3454;42.654;23.378;2022-09-03T07:41:23;94649.66;;;17.01;100.00
6833;BME280;3454;42.654;23.378;2022-09-03T07:43:51;94655.53;;;17.18;100.00
6833;BME280;3454;42.654;23.378;2022-09-03T07:46:19;94666.88;;;17.23;100.00
6833;BME280;3454;42.654;23.378;2022-09-03T07:48:49;94665.69;;;17.34;100.00
6833;BME280;3454;42.654;23.378;2022-09-03T07:51:15;94675.09;;;17.49;100.00
6833;BME280;3454;42.654;23.378;2022-09-03T07:53:43;94670.75;;;17.50;100.00
6833;BME280;3454;42.654;23.378;2022-09-03T07:56:10;94689.63;;;17.65;100.00
6833;BME280;3454;42.654;23.378;2022-09-03T07:58:37;94706.66;;;17.66;100.00
6833;BME280;3454;42.654;23.378;2022-09-03T08:01:06;94706.31;;;17.69;100.00
6833;BME280;3454;42.654;23.378;2022-09-03T08:03:33;94685.31;;;17.57;100.00
6833;BME280;3454;42.654;23.378;2022-09-03T08:06:04;94669.75;;;17.59;100.00
6833;BME280;3454;42.654;23.378;2022-09-03T08:08:31;94678.72;;;17.63;100.00
6833;BME280;3454;42.654;23.378;2022-09-03T08:16:02;94674.16;;;17.73;100.00
6833;BME280;3454;42.654;23.378;2022-09-03T08:18:29;94676.59;;;17.67;100.00
6833;BME280;3454;42.654;23.378;2022-09-03T08:21:05;94669.97;;;17.72;100.00
6833;BME280;3454;42.654;23.378;2022-09-03T08:23:36;94688.72;;;17.81;100.00
6833;BME280;3454;42.654;23.378;2022-09-03T08:26:03;94704.34;;;17.94;100.00
6833;BME280;3454;42.654;23.378;2022-09-03T08:28:28;94706.13;;;18.16;100.00
6833;BME280;3454;42.654;23.378;2022-09-03T08:30:54;94708.13;;;18.43;100.00
6833;BME280;3454;42.654;23.378;2022-09-03T08:33:21;94706.09;;;18.68;100.00
6833;BME280;3454;42.654;23.378;2022-09-03T08:36:12;94757.78;;;18.95;100.00
6833;BME280;3454;42.654;23.378;2022-09-03T08:38:40;94758.88;;;18.86;100.00
6833;BME280;3454;42.654;23.378;2022-09-03T08:41:19;94757.88;;;19.02;100.00
6833;BME280;3454;42.654;23.378;2022-09-03T08:46:17;94735.50;;;19.02;100.00
6833;BME280;3454;42.654;23.378;2022-09-03T08:48:42;94735.47;;;19.17;100.00
6833;BME280;3454;42.654;23.378;2022-09-03T08:51:10;94757.50;;;19.49;100.00
6833;BME280;3454;42.654;23.378;2022-09-03T08:53:45;94753.16;;;19.49;100.00
6833;BME280;3454;42.654;23.378;2022-09-03T08:56:20;94729.66;;;19.29;100.00
6833;BME280;3454;42.654;23.378;2022-09-03T08:58:48;94735.63;;;19.30;100.00
6833;BME280;3454;42.654;23.378;2022-09-03T09:01:26;94737.84;;;19.48;100.00
6833;BME280;3454;42.654;23.378;2022-09-03T09:06:54;94760.31;;;19.54;100.00
6833;BME280;3454;42.654;23.378;2022-09-03T09:12:25;94729.25;;;19.62;100.00
6833;BME280;3454;42.654;23.378;2022-09-03T09:17:44;94755.78;;;19.91;100.00
6833;BME280;3454;42.654;23.378;2022-09-03T09:20:25;94793.25;;;20.08;100.00
6833;BME280;3454;42.654;23.378;2022-09-03T09:23:03;94748.13;;;20.04;100.00
6833;BME280;3454;42.654;23.378;2022-09-03T09:25:33;94774.84;;;19.76;100.00
6833;BME280;3454;42.654;23.378;2022-09-03T09:28:24;94779.84;;;19.77;100.00
6833;BME280;3454;42.654;23.378;2022-09-03T09:30:54;94774.69;;;20.62;100.00
6833;BME280;3454;42.654;23.378;2022-09-03T09:33:21;94834.66;;;20.85;100.00
6833;BME280;3454;42.654;23.378;2022-09-03T09:35:48;94824.41;;;20.22;100.00
6833;BME280;3454;42.654;23.378;2022-09-03T09:38:14;94792.94;;;20.18;100.00
6833;BME280;3454;42.654;23.378;2022-09-03T09:40:43;94780.53;;;20.49;100.00
6833;BME280;3454;42.654;23.378;2022-09-03T09:45:46;94797.88;;;20.34;100.00
6833;BME280;3454;42.654;23.378;2022-09-03T09:48:21;94791.81;;;20.42;100.00
6833;BME280;3454;42.654;23.378;2022-09-03T09:50:47;94797.59;;;20.23;100.00
6833;BME280;3454;42.654;23.378;2022-09-03T09:53:12;94775.50;;;20.20;100.00
6833;BME280;3454;42.654;23.378;2022-09-03T09:55:56;94782.13;;;20.08;100.00
6833;BME280;3454;42.654;23.378;2022-09-03T09:58:26;94770.75;;;20.02;100.00
6833;BME280;3454;42.654;23.378;2022-09-03T10:03:32;94801.63;;;20.53;100.00
6833;BME280;3454;42.654;23.378;2022-09-03T10:06:05;94784.84;;;20.98;100.00
6833;BME280;3454;42.654;23.378;2022-09-03T10:08:51;94814.41;;;21.50;100.00
6833;BME280;3454;42.654;23.378;2022-09-03T10:11:19;94886.75;;;21.65;100.00
6833;BME280;3454;42.654;23.378;2022-09-03T10:13:48;94875.50;;;21.51;100.00
6833;BME280;3454;42.654;23.378;2022-09-03T10:16:25;94858.69;;;21.68;100.00
6833;BME280;3454;42.654;23.378;2022-09-03T10:18:59;94863.53;;;22.51;100.00
6833;BME280;3454;42.654;23.378;2022-09-03T10:21:34;94903.31;;;22.24;100.00
6833;BME280;3454;42.654;23.378;2022-09-03T10:27:07;94858.13;;;22.46;100.00
6833;BME280;3454;42.654;23.378;2022-09-03T10:29:37;94853.59;;;23.07;100.00
6833;BME280;3454;42.654;23.378;2022-09-03T10:37:18;94927.25;;;23.32;99.27
6833;BME280;3454;42.654;23.378;2022-09-03T10:42:38;94910.84;;;24.22;99.55
6833;BME280;3454;42.654;23.378;2022-09-03T10:48:06;94901.28;;;23.52;97.93
6833;BME280;3454;42.654;23.378;2022-09-03T11:07:58;94911.88;;;23.44;95.28
6833;BME280;3454;42.654;23.378;2022-09-03T11:10:47;94883.28;;;24.21;96.45
6833;BME280;3454;42.654;23.378;2022-09-03T11:15:51;94945.56;;;24.34;92.82
6833;BME280;3454;42.654;23.378;2022-09-03T11:20:55;95031.09;;;24.99;86.60
6833;BME280;3454;42.654;23.378;2022-09-03T11:23:27;94998.72;;;24.95;86.76
6833;BME280;3454;42.654;23.378;2022-09-03T11:26:00;94995.56;;;25.18;77.68
6833;BME280;3454;42.654;23.378;2022-09-03T11:28:37;94984.59;;;25.10;77.40
6833;BME280;3454;42.654;23.378;2022-09-03T11:31:31;95031.38;;;25.23;74.25
6833;BME280;3454;42.654;23.378;2022-09-03T11:34:12;94969.75;;;24.85;76.03
6833;BME280;3454;42.654;23.378;2022-09-03T11:36:41;94938.72;;;25.15;77.13
6833;BME280;3454;42.654;23.378;2022-09-03T11:41:58;94982.06;;;25.59;73.17
6833;BME280;3454;42.654;23.378;2022-09-03T11:44:42;95033.56;;;25.82;69.98
6833;BME280;3454;42.654;23.378;2022-09-03T11:47:23;95038.78;;;25.82;70.04
6833;BME280;3454;42.654;23.378;2022-09-03T11:49:51;94986.56;;;25.45;71.05
6833;BME280;3454;42.654;23.378;2022-09-03T11:52:29;94999.81;;;25.37;70.05
6833;BME280;3454;42.654;23.378;2022-09-03T11:54:57;94973.41;;;25.83;71.78
6833;BME280;3454;42.654;23.378;2022-09-03T11:57:24;95011.75;;;25.51;69.90
6833;BME280;3454;42.654;23.378;2022-09-03T11:59:51;94977.50;;;25.23;70.62
6833;BME280;3454;42.654;23.378;2022-09-03T12:02:31;95016.88;;;25.33;69.08
6833;BME280;3454;42.654;23.378;2022-09-03T12:18:43;94943.25;;;25.75;69.05
6833;BME280;3454;42.654;23.378;2022-09-03T12:21:10;94925.94;;;25.81;70.17
6833;BME280;3454;42.654;23.378;2022-09-03T12:23:43;95000.97;;;25.48;65.89
6833;BME280;3454;42.654;23.378;2022-09-03T12:26:14;95030.25;;;25.68;64.16
6833;BME280;3454;42.654;23.378;2022-09-03T12:28:46;94987.66;;;25.07;65.32
6833;BME280;3454;42.654;23.378;2022-09-03T12:31:24;94961.28;;;25.21;66.15
6833;BME280;3454;42.654;23.378;2022-09-03T12:33:59;94969.22;;;25.33;65.67
6833;BME280;3454;42.654;23.378;2022-09-03T12:36:38;94939.75;;;24.83;66.52
6833;BME280;3454;42.654;23.378;2022-09-03T12:39:16;94964.56;;;25.41;66.14
6833;BME280;3454;42.654;23.378;2022-09-03T12:42:03;94905.50;;;25.96;68.46
6833;BME280;3454;42.654;23.378;2022-09-03T12:47:17;94946.59;;;26.19;67.21
6833;BME280;3454;42.654;23.378;2022-09-03T12:49:45;94971.13;;;26.29;65.67
6833;BME280;3454;42.654;23.378;2022-09-03T12:52:31;94943.88;;;25.89;65.98
6833;BME280;3454;42.654;23.378;2022-09-03T12:55:09;94908.50;;;25.39;67.56
6833;BME280;3454;42.654;23.378;2022-09-03T12:57:43;94908.72;;;25.13;67.97
6833;BME280;3454;42.654;23.378;2022-09-03T13:00:16;94904.50;;;25.36;67.46
6833;BME280;3454;42.654;23.378;2022-09-03T13:05:16;94948.75;;;26.04;65.30
6833;BME280;3454;42.654;23.378;2022-09-03T13:07:52;94949.97;;;26.01;64.94
6833;BME280;3454;42.654;23.378;2022-09-03T13:10:28;94978.53;;;26.14;63.30
6833;BME280;3454;42.654;23.378;2022-09-03T13:13:02;94943.38;;;26.35;64.79
6833;BME280;3454;42.654;23.378;2022-09-03T13:18:32;94998.72;;;26.37;61.23
6833;BME280;3454;42.654;23.378;2022-09-03T13:21:23;94960.09;;;26.45;63.17
6833;BME280;3454;42.654;23.378;2022-09-03T13:26:52;95033.28;;;27.16;60.38
6833;BME280;3454;42.654;23.378;2022-09-03T13:31:56;94934.59;;;25.57;63.23
6833;BME280;3454;42.654;23.378;2022-09-03T13:34:41;94930.03;;;25.52;63.46
6833;BME280;3454;42.654;23.378;2022-09-03T13:39:56;94824.00;;;24.67;68.44
6833;BME280;3454;42.654;23.378;2022-09-03T13:42:31;94827.03;;;24.64;68.35
6833;BME280;3454;42.654;23.378;2022-09-03T13:47:36;94868.78;;;25.01;66.52
6833;BME280;3454;42.654;23.378;2022-09-03T13:50:27;94847.75;;;24.77;67.12
6833;BME280;3454;42.654;23.378;2022-09-03T13:53:00;94832.50;;;25.06;67.61
6833;BME280;3454;42.654;23.378;2022-09-03T13:58:04;94902.38;;;24.77;64.88
6833;BME280;3454;42.654;23.378;2022-09-03T14:00:45;94865.84;;;24.59;66.00
6833;BME280;3454;42.654;23.378;2022-09-03T14:12:09;94770.63;;;23.65;70.41
6833;BME280;3454;42.654;23.378;2022-09-03T14:25:19;94805.66;;;23.93;68.90
6833;BME280;3454;42.654;23.378;2022-09-03T14:27:45;94851.50;;;24.19;66.99
6833;BME280;3454;42.654;23.378;2022-09-03T14:35:58;94841.47;;;24.60;67.75
6833;BME280;3454;42.654;23.378;2022-09-03T14:47:53;94908.97;;;25.54;63.82
6833;BME280;3454;42.654;23.378;2022-09-03T14:50:44;94948.47;;;25.51;62.57
6833;BME280;3454;42.654;23.378;2022-09-03T15:02:39;94859.91;;;24.52;66.41
6833;BME280;3454;42.654;23.378;2022-09-03T15:05:20;94845.50;;;25.06;67.06
6833;BME280;3454;42.654;23.378;2022-09-03T15:08:20;94816.44;;;25.51;68.78
6833;BME280;3454;42.654;23.378;2022-09-03T15:10:54;94818.84;;;26.01;68.92
6833;BME280;3454;42.654;23.378;2022-09-03T15:13:34;94840.81;;;26.41;67.52
6833;BME280;3454;42.654;23.378;2022-09-03T15:35:04;94764.75;;;25.85;72.01
6833;BME280;3454;42.654;23.378;2022-09-03T15:50:52;94796.16;;;25.71;71.17
6833;BME280;3454;42.654;23.378;2022-09-03T15:53:28;94769.44;;;25.46;72.71
6833;BME280;3454;42.654;23.378;2022-09-03T15:56:27;94758.72;;;25.18;73.63
6833;BME280;3454;42.654;23.378;2022-09-03T16:01:55;94694.38;;;24.89;77.07
6833;BME280;3454;42.654;23.378;2022-09-03T16:05:04;94707.19;;;24.90;76.52
6833;BME280;3454;42.654;23.378;2022-09-03T16:10:15;94695.97;;;24.47;77.24
6833;BME280;3454;42.654;23.378;2022-09-03T16:13:06;94688.84;;;24.36;77.83
6833;BME280;3454;42.654;23.378;2022-09-03T16:22:28;94698.25;;;24.37;78.47
6833;BME280;3454;42.654;23.378;2022-09-03T16:25:18;94703.72;;;24.29;78.61
6833;BME280;3454;42.654;23.378;2022-09-03T16:27:58;94704.81;;;24.15;78.50
6833;BME280;3454;42.654;23.378;2022-09-03T16:36:20;94685.78;;;23.59;80.65
6833;BME280;3454;42.654;23.378;2022-09-03T16:41:23;94670.97;;;23.21;82.57
6833;BME280;3454;42.654;23.378;2022-09-03T16:47:00;94653.34;;;22.92;83.81
6833;BME280;3454;42.654;23.378;2022-09-03T16:49:40;94627.06;;;22.82;85.33
6833;BME280;3454;42.654;23.378;2022-09-03T16:55:31;94637.44;;;22.69;85.64
6833;BME280;3454;42.654;23.378;2022-09-03T17:00:50;94626.72;;;22.46;87.12
6833;BME280;3454;42.654;23.378;2022-09-03T17:10:05;94627.41;;;21.96;90.04
6833;BME280;3454;42.654;23.378;2022-09-03T17:13:17;94617.03;;;21.83;90.75
6833;BME280;3454;42.654;23.378;2022-09-03T17:21:58;94613.56;;;21.30;94.91
6833;BME280;3454;42.654;23.378;2022-09-03T17:35:06;94666.03;;;21.17;95.05
6833;BME280;3454;42.654;23.378;2022-09-03T17:48:50;94663.78;;;20.60;99.75
6833;BME280;3454;42.654;23.378;2022-09-03T17:51:43;94668.91;;;20.54;99.89
6833;BME280;3454;42.654;23.378;2022-09-03T17:54:39;94682.06;;;20.65;100.00
6833;BME280;3454;42.654;23.378;2022-09-03T18:04:50;94695.63;;;20.40;100.00
6833;BME280;3454;42.654;23.378;2022-09-03T18:07:42;94697.41;;;20.39;100.00
6833;BME280;3454;42.654;23.378;2022-09-03T18:12:58;94742.88;;;20.61;98.90
6833;BME280;3454;42.654;23.378;2022-09-03T18:15:35;94730.59;;;20.42;99.92
6833;BME280;3454;42.654;23.378;2022-09-03T18:18:19;94737.72;;;20.34;100.00
6833;BME280;3454;42.654;23.378;2022-09-03T18:20:55;94741.88;;;20.35;100.00
6833;BME280;3454;42.654;23.378;2022-09-03T18:23:57;94735.28;;;20.32;99.82
6833;BME280;3454;42.654;23.378;2022-09-03T18:26:50;94742.63;;;20.29;100.00
6833;BME280;3454;42.654;23.378;2022-09-03T18:29:55;94758.22;;;20.42;99.26
6833;BME280;3454;42.654;23.378;2022-09-03T18:32:42;94759.06;;;20.49;98.18
6833;BME280;3454;42.654;23.378;2022-09-03T18:35:29;94752.94;;;20.29;99.46